sensor_id;sensor_type;location;lat;lon;timestamp;temperature;humidity
21950;DHT22;11139;51.284;7.226;2024-03-08T00:00:51;6.90;99.90
21950;DHT22;11139;51.284;7.226;2024-03-08T00:03:17;6.90;99.90
21950;DHT22;11139;51.284;7.226;2024-03-08T00:05:42;6.90;99.90
21950;DHT22;11139;51.284;7.226;2024-03-08T00:08:08;6.90;99.90
21950;DHT22;11139;51.284;7.226;2024-03-08T00:10:35;6.80;99.90
21950;DHT22;11139;51.284;7.226;2024-03-08T00:13:01;6.90;99.90
21950;DHT22;11139;51.284;7.226;2024-03-08T00:15:29;6.80;99.90
21950;DHT22;11139;51.284;7.226;2024-03-08T00:17:55;6.90;99.90
21950;DHT22;11139;51.284;7.226;2024-03-08T00:20:20;6.80;99.90
21950;DHT22;11139;51.284;7.226;2024-03-08T00:22:46;6.80;99.90
21950;DHT22;11139;51.284;7.226;2024-03-08T00:25:12;6.80;99.90
21950;DHT22;11139;51.284;7.226;2024-03-08T00:27:38;6.80;99.90
21950;DHT22;11139;51.284;7.226;2024-03-08T00:30:04;6.80;99.90
21950;DHT22;11139;51.284;7.226;2024-03-08T00:32:30;6.80;99.90
21950;DHT22;11139;51.284;7.226;2024-03-08T00:34:57;6.80;99.90
21950;DHT22;11139;51.284;7.226;2024-03-08T00:37:23;6.80;99.90
21950;DHT22;11139;51.284;7.226;2024-03-08T00:39:49;6.80;99.90
21950;DHT22;11139;51.284;7.226;2024-03-08T00:42:19;6.80;99.90
21950;DHT22;11139;51.284;7.226;2024-03-08T00:44:45;6.70;99.90
21950;DHT22;11139;51.284;7.226;2024-03-08T00:47:11;6.70;99.90
21950;DHT22;11139;51.284;7.226;2024-03-08T00:49:37;6.70;99.90
21950;DHT22;11139;51.284;7.226;2024-03-08T00:52:06;6.80;99.90
21950;DHT22;11139;51.284;7.226;2024-03-08T00:54:32;6.70;99.90
21950;DHT22;11139;51.284;7.226;2024-03-08T00:56:58;6.70;99.90
21950;DHT22;11139;51.284;7.226;2024-03-08T00:59:25;6.70;99.90
21950;DHT22;11139;51.284;7.226;2024-03-08T01:01:50;6.70;99.90
21950;DHT22;11139;51.284;7.226;2024-03-08T01:04:16;6.70;99.90
21950;DHT22;11139;51.284;7.226;2024-03-08T01:06:42;6.70;99.90
21950;DHT22;11139;51.284;7.226;2024-03-08T01:09:11;6.70;99.90
21950;DHT22;11139;51.284;7.226;2024-03-08T01:11:37;6.70;99.90
21950;DHT22;11139;51.284;7.226;2024-03-08T01:14:03;6.70;99.90
21950;DHT22;11139;51.284;7.226;2024-03-08T01:16:29;6.70;99.90
21950;DHT22;11139;51.284;7.226;2024-03-08T01:18:54;6.70;99.90
21950;DHT22;11139;51.284;7.226;2024-03-08T01:21:20;6.70;99.90
21950;DHT22;11139;51.284;7.226;2024-03-08T01:23:46;6.70;99.90
21950;DHT22;11139;51.284;7.226;2024-03-08T01:26:12;6.70;99.90
21950;DHT22;11139;51.284;7.226;2024-03-08T01:28:40;6.60;99.90
21950;DHT22;11139;51.284;7.226;2024-03-08T01:31:06;6.60;99.90
21950;DHT22;11139;51.284;7.226;2024-03-08T01:33:31;6.60;99.90
21950;DHT22;11139;51.284;7.226;2024-03-08T01:35:57;6.60;99.90
21950;DHT22;11139;51.284;7.226;2024-03-08T01:38:23;6.60;99.90
21950;DHT22;11139;51.284;7.226;2024-03-08T01:40:49;6.60;99.90
21950;DHT22;11139;51.284;7.226;2024-03-08T01:43:26;6.60;99.90
21950;DHT22;11139;51.284;7.226;2024-03-08T01:45:55;6.60;99.90
21950;DHT22;11139;51.284;7.226;2024-03-08T01:48:22;6.60;99.90
21950;DHT22;11139;51.284;7.226;2024-03-08T01:50:50;6.60;99.90
21950;DHT22;11139;51.284;7.226;2024-03-08T01:53:18;6.60;99.90
21950;DHT22;11139;51.284;7.226;2024-03-08T01:55:44;6.60;99.90
21950;DHT22;11139;51.284;7.226;2024-03-08T01:58:12;6.60;99.90
21950;DHT22;11139;51.284;7.226;2024-03-08T02:00:42;6.60;99.90
21950;DHT22;11139;51.284;7.226;2024-03-08T02:03:09;6.60;99.90
21950;DHT22;11139;51.284;7.226;2024-03-08T02:05:34;6.50;99.90
21950;DHT22;11139;51.284;7.226;2024-03-08T02:08:01;6.60;99.90
21950;DHT22;11139;51.284;7.226;2024-03-08T02:10:28;6.60;99.90
21950;DHT22;11139;51.284;7.226;2024-03-08T02:12:54;6.50;99.90
21950;DHT22;11139;51.284;7.226;2024-03-08T02:15:20;6.60;99.90
21950;DHT22;11139;51.284;7.226;2024-03-08T02:17:47;6.50;99.90
21950;DHT22;11139;51.284;7.226;2024-03-08T02:20:12;6.50;99.90
21950;DHT22;11139;51.284;7.226;2024-03-08T02:22:38;6.50;99.90
21950;DHT22;11139;51.284;7.226;2024-03-08T02:25:05;6.50;99.90
21950;DHT22;11139;51.284;7.226;2024-03-08T02:27:31;6.50;99.90
21950;DHT22;11139;51.284;7.226;2024-03-08T02:29:57;6.50;99.90
21950;DHT22;11139;51.284;7.226;2024-03-08T02:32:23;6.50;99.90
21950;DHT22;11139;51.284;7.226;2024-03-08T02:34:49;6.50;99.90
21950;DHT22;11139;51.284;7.226;2024-03-08T02:37:16;6.50;99.90
21950;DHT22;11139;51.284;7.226;2024-03-08T02:39:42;6.50;99.90
21950;DHT22;11139;51.284;7.226;2024-03-08T02:42:07;6.50;99.90
21950;DHT22;11139;51.284;7.226;2024-03-08T02:44:33;6.50;99.90
21950;DHT22;11139;51.284;7.226;2024-03-08T02:46:59;6.50;99.90
21950;DHT22;11139;51.284;7.226;2024-03-08T02:49:26;6.50;99.90
21950;DHT22;11139;51.284;7.226;2024-03-08T02:51:52;6.50;99.90
21950;DHT22;11139;51.284;7.226;2024-03-08T02:54:19;6.50;99.90
21950;DHT22;11139;51.284;7.226;2024-03-08T02:56:45;6.40;99.90
21950;DHT22;11139;51.284;7.226;2024-03-08T02:59:16;6.40;99.90
21950;DHT22;11139;51.284;7.226;2024-03-08T03:01:43;6.40;99.90
21950;DHT22;11139;51.284;7.226;2024-03-08T03:04:08;6.40;99.90
21950;DHT22;11139;51.284;7.226;2024-03-08T03:06:34;6.40;99.90
21950;DHT22;11139;51.284;7.226;2024-03-08T03:09:01;6.40;99.90
21950;DHT22;11139;51.284;7.226;2024-03-08T03:11:27;6.40;99.90
21950;DHT22;11139;51.284;7.226;2024-03-08T03:13:53;6.40;99.90
21950;DHT22;11139;51.284;7.226;2024-03-08T03:16:19;6.40;99.90
21950;DHT22;11139;51.284;7.226;2024-03-08T03:18:46;6.40;99.90
21950;DHT22;11139;51.284;7.226;2024-03-08T03:21:12;6.40;99.90
21950;DHT22;11139;51.284;7.226;2024-03-08T03:23:39;6.30;99.90
21950;DHT22;11139;51.284;7.226;2024-03-08T03:26:05;6.40;99.90
21950;DHT22;11139;51.284;7.226;2024-03-08T03:28:33;6.40;99.90
21950;DHT22;11139;51.284;7.226;2024-03-08T03:30:59;6.30;99.90
21950;DHT22;11139;51.284;7.226;2024-03-08T03:33:25;6.30;99.90
21950;DHT22;11139;51.284;7.226;2024-03-08T03:35:50;6.30;99.90
21950;DHT22;11139;51.284;7.226;2024-03-08T03:38:17;6.30;99.90
21950;DHT22;11139;51.284;7.226;2024-03-08T03:40:45;6.30;99.90
21950;DHT22;11139;51.284;7.226;2024-03-08T03:43:11;6.30;99.90
21950;DHT22;11139;51.284;7.226;2024-03-08T03:45:38;6.30;99.90
21950;DHT22;11139;51.284;7.226;2024-03-08T03:48:07;6.30;99.90
21950;DHT22;11139;51.284;7.226;2024-03-08T03:50:36;6.20;99.90
21950;DHT22;11139;51.284;7.226;2024-03-08T03:53:02;6.20;99.90
21950;DHT22;11139;51.284;7.226;2024-03-08T03:55:28;6.20;99.90
21950;DHT22;11139;51.284;7.226;2024-03-08T03:57:54;6.20;99.90
21950;DHT22;11139;51.284;7.226;2024-03-08T04:00:20;6.20;99.90
21950;DHT22;11139;51.284;7.226;2024-03-08T04:02:46;6.20;99.90
21950;DHT22;11139;51.284;7.226;2024-03-08T04:05:12;6.20;99.90
21950;DHT22;11139;51.284;7.226;2024-03-08T04:07:39;6.20;99.90
21950;DHT22;11139;51.284;7.226;2024-03-08T04:10:06;6.20;99.90
21950;DHT22;11139;51.284;7.226;2024-03-08T04:12:35;6.20;99.90
21950;DHT22;11139;51.284;7.226;2024-03-08T04:15:01;6.20;99.90
21950;DHT22;11139;51.284;7.226;2024-03-08T04:17:27;6.20;99.90
21950;DHT22;11139;51.284;7.226;2024-03-08T04:19:53;6.20;99.90
21950;DHT22;11139;51.284;7.226;2024-03-08T04:22:19;6.20;99.90
21950;DHT22;11139;51.284;7.226;2024-03-08T04:24:45;6.20;99.90
21950;DHT22;11139;51.284;7.226;2024-03-08T04:27:12;6.20;99.90
21950;DHT22;11139;51.284;7.226;2024-03-08T04:29:38;6.10;99.90
21950;DHT22;11139;51.284;7.226;2024-03-08T04:32:04;6.10;99.90
21950;DHT22;11139;51.284;7.226;2024-03-08T04:34:31;6.10;99.90
21950;DHT22;11139;51.284;7.226;2024-03-08T04:37:00;6.10;99.90
21950;DHT22;11139;51.284;7.226;2024-03-08T04:39:26;6.10;99.90
21950;DHT22;11139;51.284;7.226;2024-03-08T04:41:57;6.10;99.90
21950;DHT22;11139;51.284;7.226;2024-03-08T04:44:23;6.10;99.90
21950;DHT22;11139;51.284;7.226;2024-03-08T04:46:50;6.10;99.90
21950;DHT22;11139;51.284;7.226;2024-03-08T04:49:16;6.10;99.90
21950;DHT22;11139;51.284;7.226;2024-03-08T04:51:42;6.10;99.90
21950;DHT22;11139;51.284;7.226;2024-03-08T04:54:07;6.10;99.90
21950;DHT22;11139;51.284;7.226;2024-03-08T04:56:33;6.10;99.90
21950;DHT22;11139;51.284;7.226;2024-03-08T04:58:59;6.10;99.90
21950;DHT22;11139;51.284;7.226;2024-03-08T05:01:24;6.10;99.90
21950;DHT22;11139;51.284;7.226;2024-03-08T05:03:50;6.10;99.90
21950;DHT22;11139;51.284;7.226;2024-03-08T05:06:16;6.10;99.90
21950;DHT22;11139;51.284;7.226;2024-03-08T05:08:42;6.10;99.90
21950;DHT22;11139;51.284;7.226;2024-03-08T05:11:08;6.10;99.90
21950;DHT22;11139;51.284;7.226;2024-03-08T05:13:34;6.00;99.90
21950;DHT22;11139;51.284;7.226;2024-03-08T05:16:00;6.10;99.90
21950;DHT22;11139;51.284;7.226;2024-03-08T05:18:26;6.10;99.90
21950;DHT22;11139;51.284;7.226;2024-03-08T05:20:53;6.00;99.90
21950;DHT22;11139;51.284;7.226;2024-03-08T05:23:19;6.00;99.90
21950;DHT22;11139;51.284;7.226;2024-03-08T05:25:45;6.00;99.90
21950;DHT22;11139;51.284;7.226;2024-03-08T05:28:14;6.00;99.90
21950;DHT22;11139;51.284;7.226;2024-03-08T05:30:40;6.00;99.90
21950;DHT22;11139;51.284;7.226;2024-03-08T05:33:06;6.00;99.90
21950;DHT22;11139;51.284;7.226;2024-03-08T05:35:36;6.00;99.90
21950;DHT22;11139;51.284;7.226;2024-03-08T05:38:01;6.00;99.90
21950;DHT22;11139;51.284;7.226;2024-03-08T05:40:27;6.00;99.90
21950;DHT22;11139;51.284;7.226;2024-03-08T05:42:57;6.00;99.90
21950;DHT22;11139;51.284;7.226;2024-03-08T05:45:23;6.00;99.90
21950;DHT22;11139;51.284;7.226;2024-03-08T05:47:50;6.00;99.90
21950;DHT22;11139;51.284;7.226;2024-03-08T05:50:17;6.00;99.90
21950;DHT22;11139;51.284;7.226;2024-03-08T05:52:43;6.00;99.90
21950;DHT22;11139;51.284;7.226;2024-03-08T05:55:08;6.00;99.90
21950;DHT22;11139;51.284;7.226;2024-03-08T05:57:35;6.00;99.90
21950;DHT22;11139;51.284;7.226;2024-03-08T06:00:04;6.00;99.90
21950;DHT22;11139;51.284;7.226;2024-03-08T06:02:29;6.00;99.90
21950;DHT22;11139;51.284;7.226;2024-03-08T06:04:55;6.00;99.90
21950;DHT22;11139;51.284;7.226;2024-03-08T06:07:21;5.90;99.90
21950;DHT22;11139;51.284;7.226;2024-03-08T06:09:46;5.90;99.90
21950;DHT22;11139;51.284;7.226;2024-03-08T06:12:13;5.90;99.90
21950;DHT22;11139;51.284;7.226;2024-03-08T06:14:44;5.90;99.90
21950;DHT22;11139;51.284;7.226;2024-03-08T06:17:10;5.90;99.90
21950;DHT22;11139;51.284;7.226;2024-03-08T06:19:45;5.90;99.90
21950;DHT22;11139;51.284;7.226;2024-03-08T06:22:13;5.90;99.90
21950;DHT22;11139;51.284;7.226;2024-03-08T06:24:39;5.90;99.90
21950;DHT22;11139;51.284;7.226;2024-03-08T06:27:05;5.90;99.90
21950;DHT22;11139;51.284;7.226;2024-03-08T06:29:30;5.90;99.90
21950;DHT22;11139;51.284;7.226;2024-03-08T06:31:56;5.90;99.90
21950;DHT22;11139;51.284;7.226;2024-03-08T06:34:22;5.90;99.90
21950;DHT22;11139;51.284;7.226;2024-03-08T06:36:47;5.90;99.90
21950;DHT22;11139;51.284;7.226;2024-03-08T06:39:13;5.90;99.90
21950;DHT22;11139;51.284;7.226;2024-03-08T06:41:38;5.90;99.90
21950;DHT22;11139;51.284;7.226;2024-03-08T06:44:04;5.90;99.90
21950;DHT22;11139;51.284;7.226;2024-03-08T06:46:30;5.90;99.90
21950;DHT22;11139;51.284;7.226;2024-03-08T06:48:56;5.90;99.90
21950;DHT22;11139;51.284;7.226;2024-03-08T06:51:22;5.90;99.90
21950;DHT22;11139;51.284;7.226;2024-03-08T06:53:47;5.90;99.90
21950;DHT22;11139;51.284;7.226;2024-03-08T06:56:14;5.90;99.90
21950;DHT22;11139;51.284;7.226;2024-03-08T06:58:40;5.90;99.90
21950;DHT22;11139;51.284;7.226;2024-03-08T07:01:07;5.90;99.90
21950;DHT22;11139;51.284;7.226;2024-03-08T07:03:41;5.90;99.90
21950;DHT22;11139;51.284;7.226;2024-03-08T07:06:10;5.90;99.90
21950;DHT22;11139;51.284;7.226;2024-03-08T07:08:36;5.90;99.90
21950;DHT22;11139;51.284;7.226;2024-03-08T07:11:02;5.80;99.90
21950;DHT22;11139;51.284;7.226;2024-03-08T07:13:28;5.80;99.90
21950;DHT22;11139;51.284;7.226;2024-03-08T07:15:55;5.80;99.90
21950;DHT22;11139;51.284;7.226;2024-03-08T07:18:20;5.80;99.90
21950;DHT22;11139;51.284;7.226;2024-03-08T07:20:47;5.80;99.90
21950;DHT22;11139;51.284;7.226;2024-03-08T07:23:14;5.80;99.90
21950;DHT22;11139;51.284;7.226;2024-03-08T07:26:00;5.80;99.90
21950;DHT22;11139;51.284;7.226;2024-03-08T07:28:26;5.80;99.90
21950;DHT22;11139;51.284;7.226;2024-03-08T07:30:53;5.80;99.90
21950;DHT22;11139;51.284;7.226;2024-03-08T07:33:27;5.80;99.90
21950;DHT22;11139;51.284;7.226;2024-03-08T07:35:52;5.80;99.90
21950;DHT22;11139;51.284;7.226;2024-03-08T07:38:18;5.80;99.90
21950;DHT22;11139;51.284;7.226;2024-03-08T07:40:46;5.80;99.90
21950;DHT22;11139;51.284;7.226;2024-03-08T07:43:13;5.80;99.90
21950;DHT22;11139;51.284;7.226;2024-03-08T07:45:39;5.80;99.90
21950;DHT22;11139;51.284;7.226;2024-03-08T07:48:05;5.70;99.90
21950;DHT22;11139;51.284;7.226;2024-03-08T07:50:38;5.80;99.90
21950;DHT22;11139;51.284;7.226;2024-03-08T07:53:05;5.70;99.90
21950;DHT22;11139;51.284;7.226;2024-03-08T07:55:32;5.70;99.90
21950;DHT22;11139;51.284;7.226;2024-03-08T07:57:58;5.70;99.90
21950;DHT22;11139;51.284;7.226;2024-03-08T08:00:25;5.70;99.90
21950;DHT22;11139;51.284;7.226;2024-03-08T08:02:55;5.70;99.90
21950;DHT22;11139;51.284;7.226;2024-03-08T08:05:21;5.70;99.90
21950;DHT22;11139;51.284;7.226;2024-03-08T08:07:47;5.70;99.90
21950;DHT22;11139;51.284;7.226;2024-03-08T08:10:13;5.70;99.90
21950;DHT22;11139;51.284;7.226;2024-03-08T08:12:48;5.70;99.90
21950;DHT22;11139;51.284;7.226;2024-03-08T08:15:14;5.70;99.90
21950;DHT22;11139;51.284;7.226;2024-03-08T08:17:41;5.70;99.90
21950;DHT22;11139;51.284;7.226;2024-03-08T08:20:08;5.70;99.90
21950;DHT22;11139;51.284;7.226;2024-03-08T08:22:34;5.70;99.90
21950;DHT22;11139;51.284;7.226;2024-03-08T08:25:00;5.70;99.90
21950;DHT22;11139;51.284;7.226;2024-03-08T08:27:25;5.70;99.90
21950;DHT22;11139;51.284;7.226;2024-03-08T08:29:51;5.70;99.90
21950;DHT22;11139;51.284;7.226;2024-03-08T08:32:17;5.70;99.90
21950;DHT22;11139;51.284;7.226;2024-03-08T08:34:44;5.70;99.90
21950;DHT22;11139;51.284;7.226;2024-03-08T08:37:09;5.70;99.90
21950;DHT22;11139;51.284;7.226;2024-03-08T08:39:35;5.70;99.90
21950;DHT22;11139;51.284;7.226;2024-03-08T08:42:01;5.70;99.90
21950;DHT22;11139;51.284;7.226;2024-03-08T08:44:29;5.70;99.90
21950;DHT22;11139;51.284;7.226;2024-03-08T08:46:57;5.70;99.90
21950;DHT22;11139;51.284;7.226;2024-03-08T08:49:22;5.70;99.90
21950;DHT22;11139;51.284;7.226;2024-03-08T08:51:52;5.70;99.90
21950;DHT22;11139;51.284;7.226;2024-03-08T08:54:18;5.70;99.90
21950;DHT22;11139;51.284;7.226;2024-03-08T08:56:44;5.70;99.90
21950;DHT22;11139;51.284;7.226;2024-03-08T08:59:10;5.70;99.90
21950;DHT22;11139;51.284;7.226;2024-03-08T09:01:40;5.70;99.90
21950;DHT22;11139;51.284;7.226;2024-03-08T09:04:05;5.70;99.90
21950;DHT22;11139;51.284;7.226;2024-03-08T09:06:31;5.70;99.90
21950;DHT22;11139;51.284;7.226;2024-03-08T09:08:57;5.70;99.90
21950;DHT22;11139;51.284;7.226;2024-03-08T09:11:23;5.70;99.90
21950;DHT22;11139;51.284;7.226;2024-03-08T09:13:50;5.70;99.90
21950;DHT22;11139;51.284;7.226;2024-03-08T09:16:16;5.70;99.90
21950;DHT22;11139;51.284;7.226;2024-03-08T09:18:42;5.70;99.90
21950;DHT22;11139;51.284;7.226;2024-03-08T09:21:07;5.70;99.90
21950;DHT22;11139;51.284;7.226;2024-03-08T09:23:35;5.70;99.90
21950;DHT22;11139;51.284;7.226;2024-03-08T09:26:01;5.70;99.90
21950;DHT22;11139;51.284;7.226;2024-03-08T09:28:28;5.70;99.90
21950;DHT22;11139;51.284;7.226;2024-03-08T09:30:54;5.70;99.90
21950;DHT22;11139;51.284;7.226;2024-03-08T09:33:20;5.70;99.90
21950;DHT22;11139;51.284;7.226;2024-03-08T09:35:46;5.70;99.90
21950;DHT22;11139;51.284;7.226;2024-03-08T09:38:14;5.70;99.90
21950;DHT22;11139;51.284;7.226;2024-03-08T09:40:43;5.70;99.90
21950;DHT22;11139;51.284;7.226;2024-03-08T09:43:10;5.70;99.90
21950;DHT22;11139;51.284;7.226;2024-03-08T09:45:40;5.80;99.90
21950;DHT22;11139;51.284;7.226;2024-03-08T09:48:13;5.80;99.90
21950;DHT22;11139;51.284;7.226;2024-03-08T09:50:40;5.80;99.90
21950;DHT22;11139;51.284;7.226;2024-03-08T09:53:07;5.70;99.90
21950;DHT22;11139;51.284;7.226;2024-03-08T09:55:38;5.80;99.90
21950;DHT22;11139;51.284;7.226;2024-03-08T09:58:08;5.90;99.90
21950;DHT22;11139;51.284;7.226;2024-03-08T10:00:54;6.00;99.90
21950;DHT22;11139;51.284;7.226;2024-03-08T10:03:23;6.00;99.90
21950;DHT22;11139;51.284;7.226;2024-03-08T10:05:48;6.00;99.90
21950;DHT22;11139;51.284;7.226;2024-03-08T10:08:14;5.90;99.90
21950;DHT22;11139;51.284;7.226;2024-03-08T10:10:40;5.90;99.90
21950;DHT22;11139;51.284;7.226;2024-03-08T10:13:09;5.90;99.90
21950;DHT22;11139;51.284;7.226;2024-03-08T10:15:36;5.90;99.90
21950;DHT22;11139;51.284;7.226;2024-03-08T10:18:02;6.00;99.90
21950;DHT22;11139;51.284;7.226;2024-03-08T10:20:30;5.90;99.90
21950;DHT22;11139;51.284;7.226;2024-03-08T10:23:03;6.00;99.90
21950;DHT22;11139;51.284;7.226;2024-03-08T10:25:31;6.00;99.90
21950;DHT22;11139;51.284;7.226;2024-03-08T10:27:57;5.90;99.90
21950;DHT22;11139;51.284;7.226;2024-03-08T10:30:23;6.00;99.90
21950;DHT22;11139;51.284;7.226;2024-03-08T10:32:49;6.00;99.90
21950;DHT22;11139;51.284;7.226;2024-03-08T10:35:15;6.00;99.90
21950;DHT22;11139;51.284;7.226;2024-03-08T10:37:46;6.00;99.90
21950;DHT22;11139;51.284;7.226;2024-03-08T10:40:17;6.00;99.90
21950;DHT22;11139;51.284;7.226;2024-03-08T10:43:04;6.10;99.90
21950;DHT22;11139;51.284;7.226;2024-03-08T10:45:39;6.10;99.90
21950;DHT22;11139;51.284;7.226;2024-03-08T10:50:57;6.10;99.90
21950;DHT22;11139;51.284;7.226;2024-03-08T10:53:27;6.20;99.90
21950;DHT22;11139;51.284;7.226;2024-03-08T10:55:53;6.20;99.90
21950;DHT22;11139;51.284;7.226;2024-03-08T10:58:24;6.10;99.90
21950;DHT22;11139;51.284;7.226;2024-03-08T11:00:53;6.10;99.90
21950;DHT22;11139;51.284;7.226;2024-03-08T11:06:15;6.20;99.90
21950;DHT22;11139;51.284;7.226;2024-03-08T11:08:41;6.20;99.90
21950;DHT22;11139;51.284;7.226;2024-03-08T11:11:24;6.20;99.90
21950;DHT22;11139;51.284;7.226;2024-03-08T11:13:53;6.20;99.90
21950;DHT22;11139;51.284;7.226;2024-03-08T11:19:05;6.30;99.90
21950;DHT22;11139;51.284;7.226;2024-03-08T11:21:32;6.30;99.90
21950;DHT22;11139;51.284;7.226;2024-03-08T11:24:02;6.30;99.90
21950;DHT22;11139;51.284;7.226;2024-03-08T11:26:31;6.40;99.90
21950;DHT22;11139;51.284;7.226;2024-03-08T11:34:32;6.40;99.90
21950;DHT22;11139;51.284;7.226;2024-03-08T11:37:03;6.40;99.90
21950;DHT22;11139;51.284;7.226;2024-03-08T11:39:30;6.40;99.90
21950;DHT22;11139;51.284;7.226;2024-03-08T11:41:56;6.40;99.90
21950;DHT22;11139;51.284;7.226;2024-03-08T11:44:24;6.40;99.90
21950;DHT22;11139;51.284;7.226;2024-03-08T11:46:53;6.40;99.90
21950;DHT22;11139;51.284;7.226;2024-03-08T11:49:19;6.40;99.90
21950;DHT22;11139;51.284;7.226;2024-03-08T11:51:45;6.40;99.90
21950;DHT22;11139;51.284;7.226;2024-03-08T11:54:12;6.40;99.90
21950;DHT22;11139;51.284;7.226;2024-03-08T11:56:41;6.50;99.90
21950;DHT22;11139;51.284;7.226;2024-03-08T11:59:12;6.50;99.90
21950;DHT22;11139;51.284;7.226;2024-03-08T12:01:39;6.50;99.90
21950;DHT22;11139;51.284;7.226;2024-03-08T12:04:05;6.80;99.90
21950;DHT22;11139;51.284;7.226;2024-03-08T12:06:38;7.20;99.90
21950;DHT22;11139;51.284;7.226;2024-03-08T12:09:11;7.50;99.90
21950;DHT22;11139;51.284;7.226;2024-03-08T12:11:37;7.60;99.90
21950;DHT22;11139;51.284;7.226;2024-03-08T12:14:03;7.60;99.90
21950;DHT22;11139;51.284;7.226;2024-03-08T12:16:29;7.60;99.90
21950;DHT22;11139;51.284;7.226;2024-03-08T12:18:55;7.60;99.90
21950;DHT22;11139;51.284;7.226;2024-03-08T12:21:21;7.60;99.90
21950;DHT22;11139;51.284;7.226;2024-03-08T12:24:08;7.60;99.90
21950;DHT22;11139;51.284;7.226;2024-03-08T12:26:38;7.60;99.90
21950;DHT22;11139;51.284;7.226;2024-03-08T12:29:24;7.60;99.90
21950;DHT22;11139;51.284;7.226;2024-03-08T12:31:53;7.60;99.90
21950;DHT22;11139;51.284;7.226;2024-03-08T12:34:19;7.60;99.90
21950;DHT22;11139;51.284;7.226;2024-03-08T12:36:50;7.60;99.90
21950;DHT22;11139;51.284;7.226;2024-03-08T12:39:18;7.60;99.90
21950;DHT22;11139;51.284;7.226;2024-03-08T12:41:48;7.60;99.90
21950;DHT22;11139;51.284;7.226;2024-03-08T12:44:15;7.60;99.90
21950;DHT22;11139;51.284;7.226;2024-03-08T12:46:40;7.60;99.90
21950;DHT22;11139;51.284;7.226;2024-03-08T12:49:10;7.60;99.90
21950;DHT22;11139;51.284;7.226;2024-03-08T12:51:36;7.60;99.90
21950;DHT22;11139;51.284;7.226;2024-03-08T12:54:02;7.60;99.90
21950;DHT22;11139;51.284;7.226;2024-03-08T12:56:32;7.60;99.90
21950;DHT22;11139;51.284;7.226;2024-03-08T12:59:00;7.60;99.90
21950;DHT22;11139;51.284;7.226;2024-03-08T13:01:26;7.60;99.90
21950;DHT22;11139;51.284;7.226;2024-03-08T13:03:53;7.60;99.90
21950;DHT22;11139;51.284;7.226;2024-03-08T13:06:22;7.60;99.90
21950;DHT22;11139;51.284;7.226;2024-03-08T13:08:50;7.60;99.90
21950;DHT22;11139;51.284;7.226;2024-03-08T13:11:21;7.70;99.90
21950;DHT22;11139;51.284;7.226;2024-03-08T13:13:47;7.60;99.90
21950;DHT22;11139;51.284;7.226;2024-03-08T13:16:13;7.70;99.90
21950;DHT22;11139;51.284;7.226;2024-03-08T13:18:42;7.60;99.90
21950;DHT22;11139;51.284;7.226;2024-03-08T13:21:09;7.70;99.90
21950;DHT22;11139;51.284;7.226;2024-03-08T13:23:36;7.70;99.90
21950;DHT22;11139;51.284;7.226;2024-03-08T13:26:09;7.70;99.90
21950;DHT22;11139;51.284;7.226;2024-03-08T13:28:37;7.70;99.90
21950;DHT22;11139;51.284;7.226;2024-03-08T13:31:06;7.70;99.90
21950;DHT22;11139;51.284;7.226;2024-03-08T13:33:35;7.70;99.90
21950;DHT22;11139;51.284;7.226;2024-03-08T13:36:02;7.70;99.90
21950;DHT22;11139;51.284;7.226;2024-03-08T13:38:34;7.70;99.90
21950;DHT22;11139;51.284;7.226;2024-03-08T13:41:02;7.70;99.90
21950;DHT22;11139;51.284;7.226;2024-03-08T13:43:28;7.70;99.90
21950;DHT22;11139;51.284;7.226;2024-03-08T13:45:54;7.70;99.90
21950;DHT22;11139;51.284;7.226;2024-03-08T13:48:20;7.70;99.90
21950;DHT22;11139;51.284;7.226;2024-03-08T13:50:48;7.70;99.90
21950;DHT22;11139;51.284;7.226;2024-03-08T13:53:15;7.70;99.90
21950;DHT22;11139;51.284;7.226;2024-03-08T13:55:41;7.60;99.90
21950;DHT22;11139;51.284;7.226;2024-03-08T13:58:07;7.70;99.90
21950;DHT22;11139;51.284;7.226;2024-03-08T14:00:35;7.70;99.90
21950;DHT22;11139;51.284;7.226;2024-03-08T14:03:01;7.70;99.90
21950;DHT22;11139;51.284;7.226;2024-03-08T14:05:41;7.70;99.90
21950;DHT22;11139;51.284;7.226;2024-03-08T14:08:08;7.70;99.90
21950;DHT22;11139;51.284;7.226;2024-03-08T14:10:34;7.70;99.90
21950;DHT22;11139;51.284;7.226;2024-03-08T14:13:02;7.70;99.90
21950;DHT22;11139;51.284;7.226;2024-03-08T14:15:31;7.70;99.90
21950;DHT22;11139;51.284;7.226;2024-03-08T14:17:56;7.70;99.90
21950;DHT22;11139;51.284;7.226;2024-03-08T14:20:23;7.70;99.90
21950;DHT22;11139;51.284;7.226;2024-03-08T14:22:54;7.70;99.90
21950;DHT22;11139;51.284;7.226;2024-03-08T14:25:23;7.70;99.90
21950;DHT22;11139;51.284;7.226;2024-03-08T14:27:51;7.70;99.90
21950;DHT22;11139;51.284;7.226;2024-03-08T14:30:19;7.70;99.90
21950;DHT22;11139;51.284;7.226;2024-03-08T14:33:07;7.70;99.90
21950;DHT22;11139;51.284;7.226;2024-03-08T14:35:36;7.70;99.90
21950;DHT22;11139;51.284;7.226;2024-03-08T14:38:02;7.70;99.90
21950;DHT22;11139;51.284;7.226;2024-03-08T14:40:28;7.70;99.90
21950;DHT22;11139;51.284;7.226;2024-03-08T14:42:56;7.70;99.90
21950;DHT22;11139;51.284;7.226;2024-03-08T14:45:22;7.70;99.90
21950;DHT22;11139;51.284;7.226;2024-03-08T14:47:50;7.70;99.90
21950;DHT22;11139;51.284;7.226;2024-03-08T14:50:17;7.70;99.90
21950;DHT22;11139;51.284;7.226;2024-03-08T14:52:43;7.70;99.90
21950;DHT22;11139;51.284;7.226;2024-03-08T14:55:09;7.70;99.90
21950;DHT22;11139;51.284;7.226;2024-03-08T14:57:39;7.70;99.90
21950;DHT22;11139;51.284;7.226;2024-03-08T15:00:05;7.70;99.90
21950;DHT22;11139;51.284;7.226;2024-03-08T15:02:32;7.70;99.90
21950;DHT22;11139;51.284;7.226;2024-03-08T15:05:04;7.70;99.90
21950;DHT22;11139;51.284;7.226;2024-03-08T15:07:35;7.70;99.90
21950;DHT22;11139;51.284;7.226;2024-03-08T15:10:00;7.70;99.90
21950;DHT22;11139;51.284;7.226;2024-03-08T15:12:26;7.70;99.90
21950;DHT22;11139;51.284;7.226;2024-03-08T15:14:53;7.70;99.90
21950;DHT22;11139;51.284;7.226;2024-03-08T15:17:21;7.80;99.90
21950;DHT22;11139;51.284;7.226;2024-03-08T15:19:50;7.80;99.90
21950;DHT22;11139;51.284;7.226;2024-03-08T15:22:17;7.80;99.90
21950;DHT22;11139;51.284;7.226;2024-03-08T15:24:44;7.80;99.90
21950;DHT22;11139;51.284;7.226;2024-03-08T15:27:10;7.80;99.90
21950;DHT22;11139;51.284;7.226;2024-03-08T15:29:35;7.80;99.90
21950;DHT22;11139;51.284;7.226;2024-03-08T15:32:02;7.80;99.90
21950;DHT22;11139;51.284;7.226;2024-03-08T15:34:28;7.80;99.90
21950;DHT22;11139;51.284;7.226;2024-03-08T15:36:54;7.80;99.90
21950;DHT22;11139;51.284;7.226;2024-03-08T15:39:20;7.80;99.90
21950;DHT22;11139;51.284;7.226;2024-03-08T15:41:49;7.80;99.90
21950;DHT22;11139;51.284;7.226;2024-03-08T15:44:15;7.80;99.90
21950;DHT22;11139;51.284;7.226;2024-03-08T15:46:41;7.80;99.90
21950;DHT22;11139;51.284;7.226;2024-03-08T15:49:07;7.80;99.90
21950;DHT22;11139;51.284;7.226;2024-03-08T15:51:34;7.80;99.90
21950;DHT22;11139;51.284;7.226;2024-03-08T15:54:02;7.80;99.90
21950;DHT22;11139;51.284;7.226;2024-03-08T15:56:30;7.80;99.90
21950;DHT22;11139;51.284;7.226;2024-03-08T15:58:58;7.80;99.90